createdAt,value
2022-07-30T00:00:25.627Z,18.96
2022-07-30T00:03:28.428Z,19.00
2022-07-30T00:06:31.156Z,18.97
2022-07-30T00:09:36.388Z,18.99
2022-07-30T00:12:39.440Z,18.84
2022-07-30T00:15:42.131Z,18.89
2022-07-30T00:18:44.734Z,18.85
2022-07-30T00:21:47.842Z,18.82
2022-07-30T00:24:51.858Z,18.81
2022-07-30T00:27:55.138Z,18.63
2022-07-30T00:30:57.833Z,18.79
2022-07-30T00:34:00.693Z,18.72
2022-07-30T00:37:03.737Z,18.69
2022-07-30T00:40:09.972Z,18.74
2022-07-30T00:43:16.279Z,18.72
2022-07-30T00:46:19.056Z,18.69
2022-07-30T00:49:22.233Z,18.69
2022-07-30T00:52:24.890Z,18.63
2022-07-30T00:55:28.873Z,18.59
2022-07-30T00:58:31.469Z,18.52
2022-07-30T01:01:34.534Z,18.49
2022-07-30T01:04:37.134Z,18.45
2022-07-30T01:07:39.822Z,18.47
2022-07-30T01:10:43.829Z,18.50
2022-07-30T01:13:46.922Z,18.49
2022-07-30T01:16:49.760Z,18.51
2022-07-30T01:19:58.691Z,18.46
2022-07-30T01:23:16.732Z,18.44
2022-07-30T01:26:23.105Z,18.45
2022-07-30T01:29:28.297Z,18.43
2022-07-30T01:32:33.956Z,18.44
2022-07-30T01:35:37.871Z,18.31
2022-07-30T01:38:42.366Z,18.27
2022-07-30T01:41:49.294Z,18.28
2022-07-30T01:44:52.215Z,18.28
2022-07-30T01:47:56.866Z,18.28
2022-07-30T01:51:03.516Z,18.25
2022-07-30T01:54:09.258Z,18.20
2022-07-30T01:57:15.255Z,18.18
2022-07-30T02:00:18.848Z,18.11
2022-07-30T02:03:22.467Z,18.16
2022-07-30T02:06:33.662Z,18.05
2022-07-30T02:09:46.987Z,18.04
2022-07-30T02:12:55.644Z,17.98
2022-07-30T02:16:04.780Z,18.02
2022-07-30T02:19:13.885Z,18.02
2022-07-30T02:22:18.221Z,18.00
2022-07-30T02:25:22.693Z,17.99
2022-07-30T02:28:28.761Z,18.07
2022-07-30T02:31:34.425Z,18.14
2022-07-30T02:34:40.249Z,18.15
2022-07-30T02:37:44.575Z,18.20
2022-07-30T02:40:47.739Z,18.15
2022-07-30T02:43:53.318Z,18.20
2022-07-30T02:46:58.882Z,18.25
2022-07-30T02:50:03.084Z,18.26
2022-07-30T02:53:09.962Z,18.31
2022-07-30T02:56:13.671Z,18.33
2022-07-30T02:59:19.721Z,18.31
2022-07-30T03:02:28.903Z,18.29
2022-07-30T03:05:32.953Z,18.31
2022-07-30T03:08:36.107Z,18.35
2022-07-30T03:11:39.846Z,18.37
2022-07-30T03:14:44.246Z,18.42
2022-07-30T03:17:51.590Z,18.34
2022-07-30T03:20:57.447Z,18.29
2022-07-30T03:24:03.292Z,18.31
2022-07-30T03:27:06.885Z,18.27
2022-07-30T03:30:12.991Z,18.24
2022-07-30T03:33:16.555Z,18.20
2022-07-30T03:36:20.459Z,18.25
2022-07-30T03:39:23.749Z,18.22
2022-07-30T03:42:27.807Z,18.19
2022-07-30T03:45:32.333Z,18.14
2022-07-30T03:48:36.205Z,18.13
2022-07-30T03:51:38.954Z,18.16
2022-07-30T03:54:42.504Z,18.01
2022-07-30T03:57:45.172Z,17.99
2022-07-30T04:00:51.300Z,18.03
2022-07-30T04:03:54.111Z,18.01
2022-07-30T04:06:56.970Z,18.02
2022-07-30T04:09:59.645Z,17.94
2022-07-30T04:13:05.371Z,17.99
2022-07-30T04:16:39.879Z,18.00
2022-07-30T04:19:44.622Z,17.87
2022-07-30T04:22:48.977Z,17.94
2022-07-30T04:25:52.145Z,17.93
2022-07-30T04:28:54.940Z,17.93
2022-07-30T04:31:59.469Z,17.93
2022-07-30T04:35:03.146Z,17.98
2022-07-30T04:38:05.756Z,17.98
2022-07-30T04:41:08.855Z,17.99
2022-07-30T04:44:11.417Z,17.90
2022-07-30T04:47:15.436Z,17.87
2022-07-30T04:50:21.550Z,17.65
2022-07-30T04:53:24.849Z,17.89
2022-07-30T04:56:28.209Z,17.94
2022-07-30T04:59:30.819Z,17.93
2022-07-30T05:02:38.794Z,18.02
2022-07-30T05:05:41.907Z,17.99
2022-07-30T05:08:45.297Z,17.93
2022-07-30T05:11:52.135Z,18.07
2022-07-30T05:14:54.701Z,18.18
2022-07-30T05:18:00.011Z,18.33
2022-07-30T05:21:02.693Z,18.37
2022-07-30T05:24:06.185Z,18.31
2022-07-30T05:27:08.802Z,18.52
2022-07-30T05:30:12.598Z,18.37
2022-07-30T05:33:17.036Z,18.45
2022-07-30T05:36:19.826Z,18.52
2022-07-30T05:39:22.450Z,18.78
2022-07-30T05:42:25.015Z,18.78
2022-07-30T05:45:27.567Z,18.87
2022-07-30T05:48:35.167Z,18.99
2022-07-30T05:51:37.710Z,19.04
2022-07-30T05:54:40.360Z,19.03
2022-07-30T05:57:43.013Z,18.99
2022-07-30T06:00:46.012Z,18.88
2022-07-30T06:03:49.929Z,18.56
2022-07-30T06:06:52.597Z,19.05
2022-07-30T06:09:59.886Z,19.10
2022-07-30T06:13:02.679Z,19.27
2022-07-30T06:16:06.177Z,19.24
2022-07-30T06:19:10.486Z,19.26
2022-07-30T06:22:25.989Z,19.32
2022-07-30T06:25:28.827Z,19.39
2022-07-30T06:28:39.396Z,19.46
2022-07-30T06:31:42.518Z,19.61
2022-07-30T06:34:46.460Z,19.65
2022-07-30T06:38:01.793Z,19.69
2022-07-30T06:41:10.528Z,19.43
2022-07-30T06:44:13.110Z,19.55
2022-07-30T06:47:20.937Z,19.82
2022-07-30T06:50:25.226Z,19.86
2022-07-30T06:53:27.794Z,19.88
2022-07-30T06:56:30.525Z,19.98
2022-07-30T06:59:33.107Z,19.96
2022-07-30T07:02:55.690Z,20.10
2022-07-30T07:05:59.686Z,20.25
2022-07-30T07:09:02.271Z,20.08
2022-07-30T07:12:05.189Z,20.12
2022-07-30T07:15:09.102Z,20.30
2022-07-30T07:18:12.746Z,20.17
2022-07-30T07:21:16.892Z,20.22
2022-07-30T07:24:19.479Z,20.08
2022-07-30T07:27:22.244Z,20.23
2022-07-30T07:30:24.903Z,20.25
2022-07-30T07:33:27.550Z,20.55
2022-07-30T07:36:31.604Z,20.90
2022-07-30T07:39:34.195Z,21.19
2022-07-30T07:42:36.793Z,21.35
2022-07-30T07:45:39.465Z,21.64
2022-07-30T07:48:42.249Z,21.71
2022-07-30T07:51:48.031Z,21.74
2022-07-30T07:54:51.284Z,21.87
2022-07-30T07:57:54.515Z,21.78
2022-07-30T08:00:57.159Z,21.89
2022-07-30T08:03:59.800Z,21.91
2022-07-30T08:07:04.414Z,22.08
2022-07-30T08:10:08.387Z,22.14
2022-07-30T08:13:48.048Z,22.19
2022-07-30T08:16:33.573Z,22.32
2022-07-30T08:19:36.272Z,22.34
2022-07-30T08:22:41.120Z,22.41
2022-07-30T08:25:43.710Z,22.52
2022-07-30T08:28:46.497Z,22.76
2022-07-30T08:31:49.198Z,22.91
2022-07-30T08:34:51.798Z,23.04
2022-07-30T08:37:55.834Z,23.19
2022-07-30T08:40:59.178Z,23.35
2022-07-30T08:44:02.310Z,23.75
2022-07-30T08:47:07.651Z,23.82
2022-07-30T08:50:11.474Z,24.16
2022-07-30T08:53:16.123Z,24.47
2022-07-30T08:56:18.993Z,24.82
2022-07-30T08:59:24.939Z,25.15
2022-07-30T09:02:47.823Z,25.16
2022-07-30T09:05:50.627Z,25.12
2022-07-30T09:08:54.742Z,25.35
2022-07-30T09:11:57.351Z,25.43
2022-07-30T09:15:08.203Z,25.71
2022-07-30T09:18:10.738Z,25.77
2022-07-30T09:21:18.793Z,25.91
2022-07-30T09:24:22.682Z,25.92
2022-07-30T09:27:25.284Z,25.97
2022-07-30T09:30:32.284Z,26.18
2022-07-30T09:33:37.968Z,25.79
2022-07-30T09:36:42.899Z,25.71
2022-07-30T09:39:58.798Z,25.90
2022-07-30T09:43:04.277Z,25.97
2022-07-30T09:46:06.936Z,26.30
2022-07-30T09:49:14.929Z,26.31
2022-07-30T09:52:29.064Z,25.77
2022-07-30T09:55:35.732Z,25.91
2022-07-30T09:58:45.463Z,26.15
2022-07-30T10:02:01.038Z,25.74
2022-07-30T10:05:14.087Z,25.59
2022-07-30T10:08:18.986Z,25.46
2022-07-30T10:11:26.644Z,25.26
2022-07-30T10:14:42.543Z,24.87
2022-07-30T10:17:46.598Z,24.49
2022-07-30T10:20:50.436Z,24.12
2022-07-30T10:23:54.682Z,23.98
2022-07-30T10:26:59.451Z,23.82
2022-07-30T10:30:03.462Z,23.63
2022-07-30T10:33:08.914Z,23.59
2022-07-30T10:36:32.590Z,23.38
2022-07-30T10:39:38.894Z,23.50
2022-07-30T10:43:03.292Z,23.36
2022-07-30T10:46:20.152Z,23.12
2022-07-30T10:49:25.793Z,22.88
2022-07-30T10:52:44.413Z,22.60
2022-07-30T10:55:47.058Z,22.24
2022-07-30T10:59:02.980Z,22.12
2022-07-30T11:02:10.464Z,21.21
2022-07-30T11:05:44.829Z,20.88
2022-07-30T11:08:48.508Z,20.91
2022-07-30T11:12:16.124Z,20.83
2022-07-30T11:15:18.494Z,21.09
2022-07-30T11:18:24.840Z,21.14
2022-07-30T11:21:27.686Z,21.02
2022-07-30T11:24:45.372Z,21.12
2022-07-30T11:27:50.358Z,21.15
2022-07-30T11:30:55.363Z,21.29
2022-07-30T11:34:32.647Z,21.41
2022-07-30T11:37:56.877Z,21.61
2022-07-30T11:41:11.273Z,21.71
2022-07-30T11:44:28.328Z,21.93
2022-07-30T11:47:32.709Z,22.09
2022-07-30T11:50:36.404Z,22.30
2022-07-30T11:53:39.198Z,22.68
2022-07-30T11:56:49.368Z,23.48
2022-07-30T11:59:57.961Z,24.35
2022-07-30T12:03:04.150Z,24.45
2022-07-30T12:06:09.262Z,24.43
2022-07-30T12:09:12.181Z,24.45
2022-07-30T12:12:23.541Z,24.63
2022-07-30T12:15:31.066Z,24.69
2022-07-30T12:18:35.028Z,25.10
2022-07-30T12:21:37.861Z,25.74
2022-07-30T12:24:40.655Z,26.01
2022-07-30T12:27:51.755Z,26.24
2022-07-30T12:30:55.802Z,26.50
2022-07-30T12:34:00.636Z,26.47
2022-07-30T12:37:10.364Z,26.38
2022-07-30T12:40:15.379Z,25.44
2022-07-30T12:43:18.096Z,25.91
2022-07-30T12:46:22.877Z,26.01
2022-07-30T12:49:37.759Z,26.14
2022-07-30T12:52:52.386Z,26.80
2022-07-30T12:55:54.974Z,27.01
2022-07-30T12:58:59.401Z,27.76
2022-07-30T13:02:02.365Z,27.40
2022-07-30T13:05:11.562Z,27.51
2022-07-30T13:08:15.170Z,27.75
2022-07-30T13:11:18.723Z,28.01
2022-07-30T13:14:24.724Z,27.90
2022-07-30T13:17:29.463Z,28.01
2022-07-30T13:20:33.395Z,28.10
2022-07-30T13:23:36.841Z,28.58
2022-07-30T13:26:39.596Z,28.82
2022-07-30T13:29:42.147Z,28.57
2022-07-30T13:32:44.746Z,28.99
2022-07-30T13:35:48.757Z,28.99
2022-07-30T13:38:52.283Z,29.31
2022-07-30T13:41:55.337Z,29.60
2022-07-30T13:44:57.993Z,29.43
2022-07-30T13:48:00.593Z,29.58
2022-07-30T13:51:06.085Z,29.57
2022-07-30T13:54:08.718Z,29.74
2022-07-30T13:57:15.140Z,29.41
2022-07-30T14:00:18.089Z,28.48
2022-07-30T14:03:20.681Z,28.80
2022-07-30T14:06:25.298Z,29.38
2022-07-30T14:09:28.955Z,29.13
2022-07-30T14:12:31.553Z,29.04
2022-07-30T14:15:34.816Z,28.79
2022-07-30T14:18:37.421Z,28.10
2022-07-30T14:21:41.798Z,28.37
2022-07-30T14:24:44.372Z,28.71
2022-07-30T14:27:48.245Z,29.07
2022-07-30T14:30:50.994Z,28.99
2022-07-30T14:33:53.590Z,28.23
2022-07-30T14:36:57.626Z,28.28
2022-07-30T14:40:00.163Z,28.04
2022-07-30T14:43:02.766Z,28.12
2022-07-30T14:46:05.938Z,27.74
2022-07-30T14:49:08.981Z,27.66
2022-07-30T14:52:13.041Z,27.52
2022-07-30T14:55:15.918Z,27.32
2022-07-30T14:58:18.584Z,27.12
2022-07-30T15:01:21.299Z,26.99
2022-07-30T15:04:24.138Z,26.77
2022-07-30T15:07:29.395Z,26.81
2022-07-30T15:10:35.167Z,26.86
2022-07-30T15:13:41.116Z,26.70
2022-07-30T15:16:53.342Z,26.55
2022-07-30T15:19:56.083Z,26.36
2022-07-30T15:23:00.049Z,26.20
2022-07-30T15:26:02.666Z,26.28
2022-07-30T15:29:05.262Z,26.34
2022-07-30T15:32:08.303Z,26.62
2022-07-30T15:35:13.807Z,26.85
2022-07-30T15:38:18.184Z,26.98
2022-07-30T15:41:20.955Z,26.90
2022-07-30T15:44:23.559Z,26.52
2022-07-30T15:47:28.603Z,26.64
2022-07-30T15:50:31.326Z,26.46
2022-07-30T15:53:35.432Z,26.50
2022-07-30T15:56:38.227Z,26.56
2022-07-30T15:59:40.925Z,26.54
2022-07-30T16:02:44.198Z,26.38
2022-07-30T16:05:51.138Z,26.37
2022-07-30T16:08:56.561Z,26.23
2022-07-30T16:11:59.661Z,26.15
2022-07-30T16:15:02.505Z,26.23
2022-07-30T16:18:06.243Z,26.24
2022-07-30T16:21:08.946Z,26.22
2022-07-30T16:24:12.877Z,26.15
2022-07-30T16:27:16.571Z,25.99
2022-07-30T16:30:19.313Z,25.82
2022-07-30T16:33:21.966Z,25.71
2022-07-30T16:36:24.678Z,25.68
2022-07-30T16:39:28.695Z,25.60
2022-07-30T16:42:31.663Z,25.49
2022-07-30T16:45:34.797Z,25.54
2022-07-30T16:48:37.569Z,25.65
2022-07-30T16:51:40.832Z,25.50
2022-07-30T16:54:45.047Z,25.50
2022-07-30T16:57:47.709Z,25.35
2022-07-30T17:00:50.440Z,25.02
2022-07-30T17:03:53.170Z,24.90
2022-07-30T17:06:55.865Z,24.84
2022-07-30T17:09:59.913Z,24.54
2022-07-30T17:13:02.696Z,24.71
2022-07-30T17:16:07.045Z,24.61
2022-07-30T17:19:09.935Z,24.57
2022-07-30T17:22:12.646Z,24.50
2022-07-30T17:25:16.657Z,24.44
2022-07-30T17:28:19.555Z,24.28
2022-07-30T17:31:29.574Z,24.28
2022-07-30T17:34:32.505Z,24.06
2022-07-30T17:37:35.230Z,24.03
2022-07-30T17:40:39.388Z,24.02
2022-07-30T17:43:42.058Z,23.86
2022-07-30T17:46:44.742Z,23.81
2022-07-30T17:49:47.374Z,23.73
2022-07-30T17:52:50.052Z,23.74
2022-07-30T17:55:57.607Z,23.58
2022-07-30T17:59:00.866Z,23.54
2022-07-30T18:02:04.528Z,23.41
2022-07-30T18:05:08.865Z,23.37
2022-07-30T18:08:11.523Z,23.36
2022-07-30T18:11:15.759Z,23.36
2022-07-30T18:14:18.440Z,23.34
2022-07-30T18:17:21.105Z,23.35
2022-07-30T18:20:23.890Z,23.24
2022-07-30T18:23:32.445Z,23.13
2022-07-30T18:26:39.363Z,23.09
2022-07-30T18:29:42.643Z,23.18
2022-07-30T18:32:46.144Z,23.14
2022-07-30T18:35:48.997Z,22.96
2022-07-30T18:38:51.714Z,22.97
2022-07-30T18:41:55.760Z,22.96
2022-07-30T18:44:58.499Z,22.95
2022-07-30T18:48:01.100Z,22.98
2022-07-30T18:51:04.748Z,22.98
2022-07-30T18:54:07.549Z,22.98
2022-07-30T18:57:14.486Z,22.89
2022-07-30T19:00:34.306Z,22.84
2022-07-30T19:03:38.271Z,22.79
2022-07-30T19:06:41.094Z,22.62
2022-07-30T19:09:45.096Z,22.65
2022-07-30T19:12:49.147Z,22.55
2022-07-30T19:15:52.252Z,22.51
2022-07-30T19:18:54.905Z,22.46
2022-07-30T19:21:57.903Z,22.35
2022-07-30T19:25:00.585Z,22.38
2022-07-30T19:28:06.203Z,22.31
2022-07-30T19:31:08.939Z,22.29
2022-07-30T19:34:11.721Z,22.28
2022-07-30T19:37:14.421Z,22.18
2022-07-30T19:40:18.770Z,21.90
2022-07-30T19:43:24.263Z,21.73
2022-07-30T19:46:27.578Z,21.65
2022-07-30T19:49:32.375Z,21.68
2022-07-30T19:52:37.519Z,21.56
2022-07-30T19:55:41.122Z,21.48
2022-07-30T19:58:46.331Z,21.37
2022-07-30T20:01:51.932Z,21.53
2022-07-30T20:04:54.792Z,21.47
2022-07-30T20:07:58.756Z,21.29
2022-07-30T20:11:02.397Z,21.25
2022-07-30T20:14:07.375Z,21.26
2022-07-30T20:17:10.093Z,21.07
2022-07-30T20:20:13.553Z,21.04
2022-07-30T20:23:16.225Z,21.02
2022-07-30T20:26:19.253Z,21.11
2022-07-30T20:29:23.752Z,20.90
2022-07-30T20:32:27.102Z,20.82
2022-07-30T20:35:29.729Z,20.86
2022-07-30T20:38:33.782Z,20.84
2022-07-30T20:41:38.377Z,20.79
2022-07-30T20:44:43.942Z,20.69
2022-07-30T20:47:56.594Z,20.72
2022-07-30T20:50:59.423Z,20.70
2022-07-30T20:54:03.515Z,20.82
2022-07-30T20:57:07.356Z,20.93
2022-07-30T21:00:20.087Z,20.80
2022-07-30T21:03:23.070Z,20.89
2022-07-30T21:06:26.219Z,20.84
2022-07-30T21:09:29.581Z,20.75
2022-07-30T21:12:53.301Z,20.62
2022-07-30T21:16:03.449Z,20.79
2022-07-30T21:19:07.098Z,20.75
2022-07-30T21:22:09.830Z,20.63
2022-07-30T21:25:12.722Z,20.74
2022-07-30T21:28:27.247Z,20.80
2022-07-30T21:31:59.073Z,20.66
2022-07-30T21:34:54.722Z,20.81
2022-07-30T21:37:57.382Z,20.68
2022-07-30T21:41:00.427Z,20.78
2022-07-30T21:44:04.614Z,20.66
2022-07-30T21:47:10.238Z,20.68
2022-07-30T21:50:13.612Z,20.84
2022-07-30T21:53:26.429Z,20.73
2022-07-30T21:56:32.739Z,20.80
2022-07-30T21:59:35.739Z,20.85
2022-07-30T22:02:40.150Z,20.70
2022-07-30T22:05:56.230Z,20.81
2022-07-30T22:08:59.208Z,20.74
2022-07-30T22:12:09.182Z,20.74
2022-07-30T22:15:15.041Z,20.80
2022-07-30T22:18:21.626Z,20.73
2022-07-30T22:21:25.691Z,20.83
2022-07-30T22:24:29.510Z,20.88
2022-07-30T22:27:39.757Z,20.78
2022-07-30T22:30:55.909Z,20.76
2022-07-30T22:34:00.184Z,20.77
2022-07-30T22:37:03.298Z,20.85
2022-07-30T22:40:08.909Z,20.49
2022-07-30T22:43:13.076Z,20.53
2022-07-30T22:46:30.136Z,20.68
2022-07-30T22:49:50.120Z,20.74
2022-07-30T22:52:59.971Z,20.65
2022-07-30T22:56:23.855Z,20.66
2022-07-30T23:02:50.504Z,20.65
2022-07-30T23:05:55.825Z,20.48
2022-07-30T23:09:00.124Z,20.61
2022-07-30T23:12:03.424Z,20.43
2022-07-30T23:12:34.342Z,20.58
2022-07-30T23:15:07.471Z,20.42
2022-07-30T23:18:10.144Z,20.52
2022-07-30T23:21:14.985Z,20.50
2022-07-30T23:24:17.797Z,20.35
2022-07-30T23:27:21.185Z,20.44
2022-07-30T23:30:24.538Z,20.44
2022-07-30T23:33:33.482Z,20.38
2022-07-30T23:36:37.982Z,20.37
2022-07-30T23:39:40.641Z,20.42
2022-07-30T23:42:43.371Z,20.22
2022-07-30T23:45:46.143Z,20.14
2022-07-30T23:48:48.862Z,20.38
2022-07-30T23:51:52.951Z,20.38
2022-07-30T23:54:55.614Z,20.18
2022-07-30T23:57:59.994Z,20.32
